Terminal Aerodrome Forecast
Issued by NWS

Home | Current Version | Previous Version | Text Only | Print | Product List | Glossary On
Versions: 1 2 3 4 5 6 7 8 9 10 11 12 13 14 15 16 17 18 19 20
000
FTUS44 KBMX 232342
TAFTCL
TAF
KTCL 232342Z 2400/2424 VRB03KT P6SM VCSH SCT008 BKN035 OVC070
      TEMPO 2400/2402 BKN008 OVC035
     FM240200 29003KT P6SM SCT035 OVC050
     FM240900 VRB03KT 3SM -SHRA BR OVC015
     FM241600 26010KT P6SM OVC025
     FM241900 27012G19KT P6SM OVC050=

USA.gov is the U.S. government's official web portal to all federal, state and local government web resources and services.